createdAt,value
2022-10-31T00:00:59.212Z,1017.13
2022-10-31T00:01:59.192Z,1017.22
2022-10-31T00:02:59.325Z,1017.15
2022-10-31T00:03:59.104Z,1017.21
2022-10-31T00:04:59.100Z,1017.18
2022-10-31T00:05:59.056Z,1017.13
2022-10-31T00:06:59.061Z,1017.18
2022-10-31T00:07:59.051Z,1017.16
2022-10-31T00:08:59.034Z,1017.18
2022-10-31T00:09:59.021Z,1017.19
2022-10-31T00:10:58.985Z,1017.22
2022-10-31T00:11:58.997Z,1017.19
2022-10-31T00:12:59.296Z,1017.19
2022-10-31T00:13:58.962Z,1017.23
2022-10-31T00:14:58.936Z,1017.23
2022-10-31T00:15:58.929Z,1017.23
2022-10-31T00:16:58.947Z,1017.14
2022-10-31T00:17:59.141Z,1017.16
2022-10-31T00:18:58.896Z,1017.23
2022-10-31T00:19:58.883Z,1017.16
2022-10-31T00:20:58.866Z,1017.21
2022-10-31T00:21:58.870Z,1017.20
2022-10-31T00:22:58.841Z,1017.25
2022-10-31T00:23:58.836Z,1017.30
2022-10-31T00:24:58.816Z,1017.27
2022-10-31T00:25:58.809Z,1017.29
2022-10-31T00:26:58.810Z,1017.19
2022-10-31T00:27:58.997Z,1017.27
2022-10-31T00:28:58.772Z,1017.26
2022-10-31T00:29:58.761Z,1017.32
2022-10-31T00:30:58.739Z,1017.27
2022-10-31T00:31:58.743Z,1017.31
2022-10-31T00:32:59.051Z,1017.26
2022-10-31T00:33:58.703Z,1017.26
2022-10-31T00:34:58.694Z,1017.19
2022-10-31T00:35:58.672Z,1017.20
2022-10-31T00:36:58.673Z,1017.23
2022-10-31T00:37:58.672Z,1017.19
2022-10-31T00:38:58.647Z,1017.14
2022-10-31T00:39:58.626Z,1017.13
2022-10-31T00:40:58.628Z,1017.14
2022-10-31T00:41:58.618Z,1017.06
2022-10-31T00:42:58.982Z,1017.12
2022-10-31T00:43:58.573Z,1017.14
2022-10-31T00:44:58.557Z,1017.17
2022-10-31T00:45:58.544Z,1017.11
2022-10-31T00:46:58.540Z,1017.14
2022-10-31T00:47:58.953Z,1017.16
2022-10-31T00:48:58.509Z,1017.21
2022-10-31T00:49:58.495Z,1017.20
2022-10-31T00:50:58.492Z,1017.25
2022-10-31T00:51:58.469Z,1017.22
2022-10-31T00:52:58.449Z,1017.24
2022-10-31T00:53:58.447Z,1017.25
2022-10-31T00:54:58.424Z,1017.28
2022-10-31T00:55:58.415Z,1017.26
2022-10-31T00:56:58.417Z,1017.25
2022-10-31T00:57:58.875Z,1017.20
2022-10-31T00:58:58.367Z,1017.22
2022-10-31T00:59:58.366Z,1017.23
2022-10-31T01:00:58.432Z,1017.23
2022-10-31T01:01:58.608Z,1017.26
2022-10-31T01:02:58.678Z,1017.32
2022-10-31T01:03:58.344Z,1017.33
2022-10-31T01:04:58.290Z,1017.32
2022-10-31T01:05:58.290Z,1017.35
2022-10-31T01:06:58.286Z,1017.32
2022-10-31T01:07:58.256Z,1017.38
2022-10-31T01:08:58.248Z,1017.39
2022-10-31T01:09:58.227Z,1017.39
2022-10-31T01:10:58.220Z,1017.42
2022-10-31T01:11:58.458Z,1017.42
2022-10-31T01:12:58.479Z,1017.49
2022-10-31T01:13:58.185Z,1017.53
2022-10-31T01:14:58.153Z,1017.43
2022-10-31T01:15:58.154Z,1017.47
2022-10-31T01:16:58.145Z,1017.54
2022-10-31T01:17:58.539Z,1017.53
2022-10-31T01:18:58.109Z,1017.59
2022-10-31T01:19:58.099Z,1017.59
2022-10-31T01:20:58.092Z,1017.58
2022-10-31T01:21:58.106Z,1017.64
2022-10-31T01:22:58.052Z,1017.59
2022-10-31T01:23:58.048Z,1017.59
2022-10-31T01:24:58.027Z,1017.54
2022-10-31T01:25:58.055Z,1017.56
2022-10-31T01:26:58.027Z,1017.59
2022-10-31T01:27:58.262Z,1017.61
2022-10-31T01:28:57.971Z,1017.61
2022-10-31T01:29:57.977Z,1017.66
2022-10-31T01:30:57.948Z,1017.63
2022-10-31T01:31:57.957Z,1017.64
2022-10-31T01:32:58.173Z,1017.66
2022-10-31T01:33:57.920Z,1017.66
2022-10-31T01:34:57.896Z,1017.66
2022-10-31T01:35:57.902Z,1017.65
2022-10-31T01:36:57.887Z,1017.62
2022-10-31T01:37:57.867Z,1017.57
2022-10-31T01:38:57.851Z,1017.54
2022-10-31T01:39:57.845Z,1017.57
2022-10-31T01:40:57.834Z,1017.62
2022-10-31T01:41:57.831Z,1017.71
2022-10-31T01:42:58.129Z,1017.66
2022-10-31T01:43:57.852Z,1017.70
2022-10-31T01:44:57.776Z,1017.72
2022-10-31T01:45:57.770Z,1017.77
2022-10-31T01:46:57.755Z,1017.80
2022-10-31T01:47:58.031Z,1017.77
2022-10-31T01:48:57.718Z,1017.75
2022-10-31T01:49:57.713Z,1017.78
2022-10-31T01:50:57.719Z,1017.81
2022-10-31T01:51:57.691Z,1017.84
2022-10-31T01:52:57.663Z,1017.77
2022-10-31T01:53:57.670Z,1017.82
2022-10-31T01:54:57.646Z,1017.80
2022-10-31T01:55:57.641Z,1017.84
2022-10-31T01:56:57.710Z,1017.86
2022-10-31T01:57:57.913Z,1017.88
2022-10-31T01:58:57.612Z,1017.88
2022-10-31T01:59:57.592Z,1017.85
2022-10-31T02:00:59.574Z,1017.88
2022-10-31T02:01:57.616Z,1017.88
2022-10-31T02:02:57.831Z,1017.83
2022-10-31T02:03:57.535Z,1017.81
2022-10-31T02:04:57.507Z,1017.87
2022-10-31T02:05:57.512Z,1017.83
2022-10-31T02:06:57.502Z,1017.81
2022-10-31T02:07:57.493Z,1017.82
2022-10-31T02:08:57.467Z,1017.88
2022-10-31T02:09:57.454Z,1017.89
2022-10-31T02:10:57.431Z,1017.89
2022-10-31T02:11:57.427Z,1017.83
2022-10-31T02:12:57.770Z,1017.88
2022-10-31T02:13:57.410Z,1017.95
2022-10-31T02:14:57.387Z,1017.98
2022-10-31T02:15:57.377Z,1017.98
2022-10-31T02:16:57.365Z,1017.98
2022-10-31T02:17:57.588Z,1017.96
2022-10-31T02:18:57.331Z,1017.95
2022-10-31T02:19:57.320Z,1017.96
2022-10-31T02:20:57.312Z,1017.98
2022-10-31T02:21:57.297Z,1018.02
2022-10-31T02:22:57.296Z,1017.96
2022-10-31T02:23:57.298Z,1017.99
2022-10-31T02:24:57.257Z,1017.97
2022-10-31T02:25:57.247Z,1018.02
2022-10-31T02:26:57.261Z,1018.01
2022-10-31T02:27:57.448Z,1018.00
2022-10-31T02:28:57.196Z,1018.01
2022-10-31T02:29:57.192Z,1018.10
2022-10-31T02:30:57.179Z,1018.12
2022-10-31T02:31:57.164Z,1018.05
2022-10-31T02:32:57.340Z,1018.08
2022-10-31T02:33:57.155Z,1018.14
2022-10-31T02:34:57.137Z,1018.17
2022-10-31T02:35:57.119Z,1018.15
2022-10-31T02:36:57.103Z,1018.23
2022-10-31T02:37:57.086Z,1018.22
2022-10-31T02:38:57.086Z,1018.11
2022-10-31T02:39:57.064Z,1018.07
2022-10-31T02:40:57.054Z,1018.08
2022-10-31T02:41:57.030Z,1018.06
2022-10-31T02:42:57.082Z,1018.07
2022-10-31T02:43:57.011Z,1018.07
2022-10-31T02:44:57.018Z,1018.03
2022-10-31T02:45:56.982Z,1018.13
2022-10-31T02:46:56.964Z,1018.13
2022-10-31T02:47:57.222Z,1018.14
2022-10-31T02:48:56.934Z,1018.10
2022-10-31T02:49:56.946Z,1018.11
2022-10-31T02:50:56.915Z,1018.12
2022-10-31T02:51:56.911Z,1018.13
2022-10-31T02:52:56.889Z,1018.13
2022-10-31T02:53:56.891Z,1018.10
2022-10-31T02:54:56.891Z,1018.16
2022-10-31T02:55:56.855Z,1018.14
2022-10-31T02:56:56.844Z,1018.15
2022-10-31T02:57:56.992Z,1018.12
2022-10-31T02:58:56.856Z,1018.18
2022-10-31T02:59:56.815Z,1018.25
2022-10-31T03:00:56.874Z,1018.11
2022-10-31T03:01:56.937Z,1018.11
2022-10-31T03:02:56.958Z,1018.26
2022-10-31T03:03:56.749Z,1018.22
2022-10-31T03:04:56.749Z,1018.26
2022-10-31T03:05:56.757Z,1018.39
2022-10-31T03:06:56.712Z,1018.30
2022-10-31T03:07:56.695Z,1018.34
2022-10-31T03:08:56.695Z,1018.42
2022-10-31T03:09:56.685Z,1018.35
2022-10-31T03:10:56.692Z,1018.36
2022-10-31T03:11:56.682Z,1018.35
2022-10-31T03:12:56.636Z,1018.35
2022-10-31T03:13:56.614Z,1018.37
2022-10-31T03:14:56.615Z,1018.39
2022-10-31T03:15:56.622Z,1018.37
2022-10-31T03:16:56.605Z,1018.39
2022-10-31T03:17:56.655Z,1018.37
2022-10-31T03:18:56.547Z,1018.36
2022-10-31T03:19:56.541Z,1018.36
2022-10-31T03:20:56.549Z,1018.39
2022-10-31T03:21:56.517Z,1018.40
2022-10-31T03:22:56.493Z,1018.47
2022-10-31T03:23:56.485Z,1018.42
2022-10-31T03:24:56.484Z,1018.47
2022-10-31T03:25:56.481Z,1018.52
2022-10-31T03:26:56.452Z,1018.51
2022-10-31T03:27:56.561Z,1018.51
2022-10-31T03:28:56.418Z,1018.47
2022-10-31T03:29:56.411Z,1018.48
2022-10-31T03:30:56.412Z,1018.53
2022-10-31T03:31:56.429Z,1018.49
2022-10-31T03:32:56.487Z,1018.52
2022-10-31T03:33:56.380Z,1018.53
2022-10-31T03:34:56.353Z,1018.53
2022-10-31T03:35:56.355Z,1018.60
2022-10-31T03:36:56.323Z,1018.60
2022-10-31T03:37:56.310Z,1018.59
2022-10-31T03:38:56.330Z,1018.57
2022-10-31T03:39:56.283Z,1018.56
2022-10-31T03:40:56.266Z,1018.66
2022-10-31T03:41:56.255Z,1018.66
2022-10-31T03:42:56.254Z,1018.63
2022-10-31T03:43:56.248Z,1018.68
2022-10-31T03:44:56.216Z,1018.70
2022-10-31T03:45:56.198Z,1018.66
2022-10-31T03:46:56.199Z,1018.65
2022-10-31T03:47:56.224Z,1018.69
2022-10-31T03:48:56.296Z,1018.71
2022-10-31T03:49:56.151Z,1018.70
2022-10-31T03:50:56.161Z,1018.72
2022-10-31T03:51:56.119Z,1018.71
2022-10-31T03:52:56.151Z,1018.76
2022-10-31T03:53:56.100Z,1018.74
2022-10-31T03:54:56.089Z,1018.74
2022-10-31T03:55:56.081Z,1018.80
2022-10-31T03:56:56.065Z,1018.78
2022-10-31T03:57:56.039Z,1018.81
2022-10-31T03:58:56.060Z,1018.82
2022-10-31T03:59:56.016Z,1018.86
2022-10-31T04:00:56.160Z,1018.85
2022-10-31T04:01:56.055Z,1018.84
2022-10-31T04:02:55.985Z,1018.79
2022-10-31T04:03:55.961Z,1018.82
2022-10-31T04:04:55.960Z,1018.92
2022-10-31T04:05:55.968Z,1018.79
2022-10-31T04:06:55.926Z,1018.86
2022-10-31T04:07:55.934Z,1018.86
2022-10-31T04:08:55.930Z,1018.85
2022-10-31T04:09:55.901Z,1018.93
2022-10-31T04:10:55.914Z,1018.81
2022-10-31T04:11:55.871Z,1018.87
2022-10-31T04:12:55.856Z,1018.99
2022-10-31T04:13:55.851Z,1018.90
2022-10-31T04:14:55.831Z,1018.88
2022-10-31T04:15:55.838Z,1019.01
2022-10-31T04:16:55.814Z,1018.91
2022-10-31T04:17:55.786Z,1018.98
2022-10-31T04:18:55.782Z,1018.95
2022-10-31T04:19:55.757Z,1018.96
2022-10-31T04:20:55.750Z,1018.96
2022-10-31T04:21:55.761Z,1018.90
2022-10-31T04:22:55.726Z,1018.98
2022-10-31T04:23:55.708Z,1018.94
2022-10-31T04:24:55.695Z,1019.03
2022-10-31T04:25:55.701Z,1018.95
2022-10-31T04:26:55.677Z,1018.93
2022-10-31T04:27:55.657Z,1018.89
2022-10-31T04:28:55.646Z,1018.95
2022-10-31T04:29:55.649Z,1018.99
2022-10-31T04:30:55.620Z,1019.03
2022-10-31T04:31:55.647Z,1019.03
2022-10-31T04:32:55.591Z,1019.00
2022-10-31T04:33:55.575Z,1019.02
2022-10-31T04:34:55.576Z,1018.99
2022-10-31T04:35:55.553Z,1019.08
2022-10-31T04:36:55.561Z,1018.97
2022-10-31T04:37:55.527Z,1019.04
2022-10-31T04:38:55.540Z,1019.04
2022-10-31T04:39:55.496Z,1019.10
2022-10-31T04:40:55.491Z,1019.06
2022-10-31T04:41:55.489Z,1019.09
2022-10-31T04:42:55.471Z,1019.04
2022-10-31T04:43:55.455Z,1019.14
2022-10-31T04:44:55.451Z,1019.17
2022-10-31T04:45:55.421Z,1019.15
2022-10-31T04:46:55.423Z,1019.14
2022-10-31T04:47:55.395Z,1019.19
2022-10-31T04:48:55.409Z,1019.14
2022-10-31T04:49:55.368Z,1019.16
2022-10-31T04:50:55.364Z,1019.16
2022-10-31T04:51:55.374Z,1019.15
2022-10-31T04:52:55.333Z,1019.14
2022-10-31T04:53:55.319Z,1019.15
2022-10-31T04:54:55.313Z,1019.16
2022-10-31T04:55:55.298Z,1019.13
2022-10-31T04:56:55.301Z,1019.11
2022-10-31T04:57:55.335Z,1019.18
2022-10-31T04:58:55.264Z,1019.14
2022-10-31T04:59:55.240Z,1019.17
2022-10-31T05:00:55.292Z,1019.24
2022-10-31T05:01:55.384Z,1019.18
2022-10-31T05:02:55.226Z,1019.17
2022-10-31T05:03:55.192Z,1019.21
2022-10-31T05:04:55.210Z,1019.21
2022-10-31T05:05:55.156Z,1019.22
2022-10-31T05:06:55.178Z,1019.16
2022-10-31T05:07:55.139Z,1019.17
2022-10-31T05:08:55.807Z,1019.19
2022-10-31T05:09:55.109Z,1019.11
2022-10-31T05:10:55.106Z,1019.18
2022-10-31T05:11:55.107Z,1019.14
2022-10-31T05:12:55.080Z,1019.17
2022-10-31T05:13:55.085Z,1019.16
2022-10-31T05:14:55.058Z,1019.20
2022-10-31T05:15:55.033Z,1019.20
2022-10-31T05:16:55.063Z,1019.19
2022-10-31T05:17:55.016Z,1019.20
2022-10-31T05:18:55.007Z,1019.20
2022-10-31T05:19:54.978Z,1019.16
2022-10-31T05:20:54.972Z,1019.16
2022-10-31T05:21:54.988Z,1019.18
2022-10-31T05:22:54.959Z,1019.18
2022-10-31T05:23:54.937Z,1019.17
2022-10-31T05:24:54.929Z,1019.18
2022-10-31T05:25:54.911Z,1019.24
2022-10-31T05:26:54.926Z,1019.22
2022-10-31T05:27:54.896Z,1019.18
2022-10-31T05:28:54.884Z,1019.18
2022-10-31T05:29:54.897Z,1019.21
2022-10-31T05:30:54.838Z,1019.20
2022-10-31T05:31:54.846Z,1019.20
2022-10-31T05:32:54.836Z,1019.24
2022-10-31T05:33:54.823Z,1019.17
2022-10-31T05:34:54.786Z,1019.15
2022-10-31T05:35:54.788Z,1019.17
2022-10-31T05:36:54.768Z,1019.18
2022-10-31T05:37:54.762Z,1019.17
2022-10-31T05:38:54.761Z,1019.16
2022-10-31T05:39:54.721Z,1019.12
2022-10-31T05:40:54.715Z,1019.24
2022-10-31T05:41:54.700Z,1019.26
2022-10-31T05:42:54.703Z,1019.21
2022-10-31T05:43:54.691Z,1019.21
2022-10-31T05:44:54.658Z,1019.16
2022-10-31T05:45:54.642Z,1019.17
2022-10-31T05:46:54.634Z,1019.20
2022-10-31T05:47:54.625Z,1019.08
2022-10-31T05:48:56.409Z,1019.13
2022-10-31T05:49:54.594Z,1019.14
2022-10-31T05:50:54.594Z,1019.12
2022-10-31T05:51:54.569Z,1019.14
2022-10-31T05:52:54.568Z,1019.17
2022-10-31T05:53:54.543Z,1019.18
2022-10-31T05:54:54.553Z,1019.17
2022-10-31T05:55:54.510Z,1019.23
2022-10-31T05:56:54.508Z,1019.19
2022-10-31T05:57:54.509Z,1019.21
2022-10-31T05:58:54.482Z,1019.18
2022-10-31T05:59:55.233Z,1019.22
2022-10-31T06:00:54.466Z,1019.24
2022-10-31T06:01:54.503Z,1019.22
2022-10-31T06:02:54.461Z,1019.30
2022-10-31T06:03:54.414Z,1019.27
2022-10-31T06:04:54.513Z,1019.29
2022-10-31T06:05:55.383Z,1019.34
2022-10-31T06:06:54.393Z,1019.37
2022-10-31T06:07:54.367Z,1019.33
2022-10-31T06:08:54.349Z,1019.42
2022-10-31T06:09:54.348Z,1019.37
2022-10-31T06:10:54.331Z,1019.37
2022-10-31T06:11:54.306Z,1019.37
2022-10-31T06:12:54.321Z,1019.46
2022-10-31T06:13:54.283Z,1019.40
2022-10-31T06:14:54.286Z,1019.47
2022-10-31T06:15:54.260Z,1019.45
2022-10-31T06:16:54.246Z,1019.48
2022-10-31T06:17:54.259Z,1019.47
2022-10-31T06:18:54.255Z,1019.43
2022-10-31T06:19:54.235Z,1019.50
2022-10-31T06:20:54.198Z,1019.51
2022-10-31T06:21:54.210Z,1019.49
2022-10-31T06:22:54.184Z,1019.46
2022-10-31T06:23:54.191Z,1019.46
2022-10-31T06:24:54.140Z,1019.36
2022-10-31T06:25:54.125Z,1019.32
2022-10-31T06:26:54.133Z,1019.34
2022-10-31T06:27:54.112Z,1019.31
2022-10-31T06:28:54.108Z,1019.36
2022-10-31T06:29:54.073Z,1019.37
2022-10-31T06:30:54.073Z,1019.34
2022-10-31T06:31:54.053Z,1019.24
2022-10-31T06:32:54.047Z,1019.31
2022-10-31T06:33:54.094Z,1019.30
2022-10-31T06:34:54.010Z,1019.38
2022-10-31T06:35:53.986Z,1019.37
2022-10-31T06:36:53.980Z,1019.37
2022-10-31T06:37:53.966Z,1019.44
2022-10-31T06:38:53.986Z,1019.45
2022-10-31T06:39:53.939Z,1019.48
2022-10-31T06:40:53.927Z,1019.54
2022-10-31T06:41:53.921Z,1019.58
2022-10-31T06:42:53.921Z,1019.56
2022-10-31T06:43:53.903Z,1019.55
2022-10-31T06:44:53.908Z,1019.62
2022-10-31T06:45:53.870Z,1019.58
2022-10-31T06:46:53.854Z,1019.58
2022-10-31T06:48:15.614Z,1019.62
2022-10-31T06:48:55.016Z,1019.59
2022-10-31T06:49:53.809Z,1019.60
2022-10-31T06:50:59.397Z,1019.60
2022-10-31T06:51:54.804Z,1019.61
2022-10-31T06:52:53.941Z,1019.60
2022-10-31T06:53:53.766Z,1019.65
2022-10-31T06:54:53.748Z,1019.71
2022-10-31T06:55:53.735Z,1019.76
2022-10-31T06:56:53.723Z,1019.77
2022-10-31T06:57:55.579Z,1019.78
2022-10-31T06:58:53.735Z,1019.78
2022-10-31T06:59:53.673Z,1019.81
2022-10-31T07:00:53.801Z,1019.85
2022-10-31T07:01:53.761Z,1019.86
2022-10-31T07:02:53.652Z,1019.84
2022-10-31T07:03:53.658Z,1019.87
2022-10-31T07:04:53.613Z,1019.86
2022-10-31T07:05:53.599Z,1019.81
2022-10-31T07:06:53.590Z,1019.86
2022-10-31T07:07:53.585Z,1019.87
2022-10-31T07:08:53.598Z,1019.85
2022-10-31T07:09:53.644Z,1019.80
2022-10-31T07:10:53.705Z,1019.91
2022-10-31T07:11:53.528Z,1019.91
2022-10-31T07:12:53.587Z,1019.92
2022-10-31T07:13:53.527Z,1020.03
2022-10-31T07:14:53.510Z,1019.96
2022-10-31T07:15:53.480Z,1019.99
2022-10-31T07:16:53.475Z,1020.05
2022-10-31T07:17:53.450Z,1020.09
2022-10-31T07:18:53.542Z,1020.03
2022-10-31T07:19:53.427Z,1020.07
2022-10-31T07:20:53.418Z,1020.05
2022-10-31T07:21:53.401Z,1020.02
2022-10-31T07:22:53.420Z,1020.09
2022-10-31T07:23:53.412Z,1020.01
2022-10-31T07:24:53.370Z,1020.05
2022-10-31T07:25:53.348Z,1020.06
2022-10-31T07:26:53.359Z,1020.12
2022-10-31T07:27:53.327Z,1020.11
2022-10-31T07:28:53.313Z,1020.09
2022-10-31T07:29:53.292Z,1020.14
2022-10-31T07:30:53.289Z,1020.10
2022-10-31T07:31:53.271Z,1020.15
2022-10-31T07:32:53.283Z,1020.11
2022-10-31T07:33:53.257Z,1020.16
2022-10-31T07:34:53.240Z,1020.13
2022-10-31T07:35:53.218Z,1020.16
2022-10-31T07:36:53.208Z,1020.10
2022-10-31T07:37:53.185Z,1020.11
2022-10-31T07:38:53.209Z,1020.14
2022-10-31T07:39:53.163Z,1020.15
2022-10-31T07:40:53.163Z,1020.15
2022-10-31T07:41:53.142Z,1020.11
2022-10-31T07:42:53.124Z,1020.11
2022-10-31T07:44:55.341Z,1020.16
2022-10-31T07:45:53.090Z,1020.14
2022-10-31T07:46:53.064Z,1020.15
2022-10-31T07:47:53.076Z,1020.14
2022-10-31T07:48:53.053Z,1020.16
2022-10-31T07:49:53.046Z,1020.19
2022-10-31T07:50:53.012Z,1020.18
2022-10-31T07:51:53.015Z,1020.25
2022-10-31T07:52:53.012Z,1020.24
2022-10-31T07:53:53.006Z,1020.22
2022-10-31T07:54:52.964Z,1020.29
2022-10-31T07:55:52.972Z,1020.28
2022-10-31T07:56:52.948Z,1020.27
2022-10-31T07:57:52.977Z,1020.33
2022-10-31T07:58:52.919Z,1020.36
2022-10-31T07:59:52.933Z,1020.32
2022-10-31T08:00:53.018Z,1020.32
2022-10-31T08:01:52.880Z,1020.31
2022-10-31T08:02:52.885Z,1020.27
2022-10-31T08:03:52.876Z,1020.33
2022-10-31T08:04:53.976Z,1020.31
2022-10-31T08:05:52.836Z,1020.25
2022-10-31T08:06:52.812Z,1020.28
2022-10-31T08:07:52.808Z,1020.26
2022-10-31T08:08:52.803Z,1020.25
2022-10-31T08:09:52.789Z,1020.20
2022-10-31T08:10:52.923Z,1020.21
2022-10-31T08:11:52.760Z,1020.16
2022-10-31T08:12:52.831Z,1020.23
2022-10-31T08:13:52.751Z,1020.23
2022-10-31T08:14:52.704Z,1020.25
2022-10-31T08:15:52.762Z,1020.26
2022-10-31T08:16:52.699Z,1020.18
2022-10-31T08:17:52.698Z,1020.28
2022-10-31T08:18:52.673Z,1020.24
2022-10-31T08:19:52.658Z,1020.22
2022-10-31T08:20:52.627Z,1020.16
2022-10-31T08:21:52.632Z,1020.23
2022-10-31T08:22:52.772Z,1020.23
2022-10-31T08:23:52.704Z,1020.19
2022-10-31T08:24:52.581Z,1020.19
2022-10-31T08:25:52.575Z,1020.17
2022-10-31T08:26:52.578Z,1020.13
2022-10-31T08:27:52.543Z,1020.11
2022-10-31T08:28:52.545Z,1020.10
2022-10-31T08:29:52.519Z,1020.21
2022-10-31T08:30:52.495Z,1020.19
2022-10-31T08:31:52.499Z,1020.18
2022-10-31T08:32:52.497Z,1020.21
2022-10-31T08:33:52.477Z,1020.17
2022-10-31T08:34:52.443Z,1020.19
2022-10-31T08:35:52.447Z,1020.24
2022-10-31T08:36:52.427Z,1020.23
2022-10-31T08:37:52.458Z,1020.25
2022-10-31T08:38:53.797Z,1020.29
2022-10-31T08:39:52.383Z,1020.21
2022-10-31T08:40:52.380Z,1020.23
2022-10-31T08:41:52.387Z,1020.29
2022-10-31T08:42:52.363Z,1020.20
2022-10-31T08:43:52.475Z,1020.18
2022-10-31T08:44:52.336Z,1020.22
2022-10-31T08:45:52.321Z,1020.27
2022-10-31T08:46:52.298Z,1020.19
2022-10-31T08:47:52.332Z,1020.25
2022-10-31T08:48:52.278Z,1020.18
2022-10-31T08:49:52.305Z,1020.21
2022-10-31T08:50:52.240Z,1020.29
2022-10-31T08:51:52.288Z,1020.30
2022-10-31T08:53:04.740Z,1020.30
2022-10-31T08:53:53.232Z,1020.33
2022-10-31T08:54:52.212Z,1020.32
2022-10-31T08:55:52.180Z,1020.35
2022-10-31T08:56:52.153Z,1020.33
2022-10-31T08:57:52.151Z,1020.37
2022-10-31T08:58:52.159Z,1020.32
2022-10-31T08:59:52.139Z,1020.26
2022-10-31T09:00:52.192Z,1020.32
2022-10-31T09:01:52.303Z,1020.32
2022-10-31T09:02:52.189Z,1020.29
2022-10-31T09:03:52.094Z,1020.27
2022-10-31T09:04:54.773Z,1020.25
2022-10-31T09:05:52.094Z,1020.24
2022-10-31T09:07:19.761Z,1020.28
2022-10-31T09:07:53.025Z,1020.23
2022-10-31T09:08:52.019Z,1020.20
2022-10-31T09:09:52.006Z,1020.20
2022-10-31T09:10:51.990Z,1020.18
2022-10-31T09:11:51.965Z,1020.11
2022-10-31T09:12:51.955Z,1020.18
2022-10-31T09:13:51.956Z,1020.14
2022-10-31T09:14:51.923Z,1020.16
2022-10-31T09:15:51.948Z,1020.12
2022-10-31T09:16:51.903Z,1020.12
2022-10-31T09:17:52.002Z,1020.15
2022-10-31T09:18:51.918Z,1020.04
2022-10-31T09:19:51.880Z,1020.12
2022-10-31T09:20:51.857Z,1020.13
2022-10-31T09:21:51.840Z,1020.13
2022-10-31T09:22:51.827Z,1020.07
2022-10-31T09:23:51.833Z,1020.10
2022-10-31T09:24:51.833Z,1020.06
2022-10-31T09:25:51.798Z,1020.07
2022-10-31T09:26:51.768Z,1020.01
2022-10-31T09:27:51.834Z,1020.06
2022-10-31T09:28:51.770Z,1020.01
2022-10-31T09:29:51.919Z,1020.02
2022-10-31T09:30:51.771Z,1020.06
2022-10-31T09:31:51.753Z,1020.02
2022-10-31T09:32:51.709Z,1019.98
2022-10-31T09:33:51.893Z,1020.07
2022-10-31T09:34:51.991Z,1020.07
2022-10-31T09:35:51.853Z,1020.09
2022-10-31T09:36:51.640Z,1020.09
2022-10-31T09:37:51.759Z,1020.06
2022-10-31T09:38:51.626Z,1020.08
2022-10-31T09:39:51.623Z,1020.04
2022-10-31T09:40:51.616Z,1020.06
2022-10-31T09:41:56.164Z,1019.95
2022-10-31T09:42:52.586Z,1020.06
2022-10-31T09:43:51.595Z,1020.11
2022-10-31T09:44:51.558Z,1020.10
2022-10-31T09:45:51.543Z,1020.11
2022-10-31T09:46:51.534Z,1020.08
2022-10-31T09:47:51.587Z,1020.18
2022-10-31T09:48:51.509Z,1020.14
2022-10-31T09:49:51.563Z,1020.21
2022-10-31T09:50:51.470Z,1020.24
2022-10-31T09:51:53.074Z,1020.30
2022-10-31T09:52:51.471Z,1020.35
2022-10-31T09:53:51.452Z,1020.36
2022-10-31T09:54:51.440Z,1020.30
2022-10-31T09:55:54.169Z,1020.38
2022-10-31T09:56:51.424Z,1020.34
2022-10-31T09:57:51.693Z,1020.30
2022-10-31T09:58:51.357Z,1020.31
2022-10-31T09:59:51.378Z,1020.33
2022-10-31T10:00:51.417Z,1020.34
2022-10-31T10:01:51.381Z,1020.35
2022-10-31T10:02:51.418Z,1020.37
2022-10-31T10:03:51.306Z,1020.38
2022-10-31T10:04:51.278Z,1020.39
2022-10-31T10:05:51.277Z,1020.40
2022-10-31T10:06:51.251Z,1020.42
2022-10-31T10:07:51.249Z,1020.40
2022-10-31T10:08:51.316Z,1020.38
2022-10-31T10:09:51.225Z,1020.33
2022-10-31T10:10:51.213Z,1020.33
2022-10-31T10:11:51.218Z,1020.35
2022-10-31T10:12:51.247Z,1020.34
2022-10-31T10:13:51.191Z,1020.34
2022-10-31T10:14:51.253Z,1020.31
2022-10-31T10:15:51.152Z,1020.42
2022-10-31T10:16:51.148Z,1020.39
2022-10-31T10:17:51.111Z,1020.33
2022-10-31T10:18:51.172Z,1020.35
2022-10-31T10:19:51.103Z,1020.29
2022-10-31T10:20:51.088Z,1020.34
2022-10-31T10:21:51.387Z,1020.38
2022-10-31T10:22:51.072Z,1020.31
2022-10-31T10:23:51.076Z,1020.33
2022-10-31T10:24:51.047Z,1020.35
2022-10-31T10:25:51.030Z,1020.29
2022-10-31T10:26:51.014Z,1020.30
2022-10-31T10:27:51.310Z,1020.34
2022-10-31T10:28:50.994Z,1020.29
2022-10-31T10:29:51.070Z,1020.29
2022-10-31T10:30:50.943Z,1020.30
2022-10-31T10:31:50.994Z,1020.31
2022-10-31T10:32:52.075Z,1020.40
2022-10-31T10:33:50.952Z,1020.30
2022-10-31T10:34:50.897Z,1020.39
2022-10-31T10:35:50.905Z,1020.28
2022-10-31T10:36:50.870Z,1020.29
2022-10-31T10:37:50.890Z,1020.39
2022-10-31T10:38:50.842Z,1020.27
2022-10-31T10:39:50.881Z,1020.19
2022-10-31T10:40:50.840Z,1020.32
2022-10-31T10:41:50.801Z,1020.25
2022-10-31T10:42:50.807Z,1020.19
2022-10-31T10:43:50.783Z,1020.25
2022-10-31T10:44:50.777Z,1020.20
2022-10-31T10:45:50.741Z,1020.22
2022-10-31T10:46:50.742Z,1020.18
2022-10-31T10:47:50.734Z,1020.21
2022-10-31T10:48:50.703Z,1020.13
2022-10-31T10:49:50.744Z,1020.12
2022-10-31T10:50:50.671Z,1020.07
2022-10-31T10:52:18.952Z,1020.08
2022-10-31T10:52:52.059Z,1020.03
2022-10-31T10:53:50.662Z,1020.00
2022-10-31T10:54:50.642Z,1020.02
2022-10-31T10:55:50.621Z,1020.00
2022-10-31T10:56:50.620Z,1019.99
2022-10-31T10:57:50.591Z,1019.92
2022-10-31T10:58:50.622Z,1019.93
2022-10-31T10:59:50.599Z,1019.94
2022-10-31T11:00:50.863Z,1019.97
2022-10-31T11:01:50.566Z,1019.96
2022-10-31T11:02:50.532Z,1019.95
2022-10-31T11:03:50.524Z,1019.93
2022-10-31T11:04:50.553Z,1019.95
2022-10-31T11:05:50.536Z,1019.97
2022-10-31T11:06:50.481Z,1019.92
2022-10-31T11:07:50.479Z,1019.99
2022-10-31T11:08:50.467Z,1019.97
2022-10-31T11:09:50.477Z,1019.93
2022-10-31T11:10:50.441Z,1019.95
2022-10-31T11:11:50.401Z,1019.97
2022-10-31T11:12:50.401Z,1019.95
2022-10-31T11:13:50.396Z,1019.93
2022-10-31T11:14:50.392Z,1019.96
2022-10-31T11:15:50.363Z,1019.94
2022-10-31T11:16:50.439Z,1019.89
2022-10-31T11:17:50.344Z,1019.91
2022-10-31T11:18:50.324Z,1019.94
2022-10-31T11:19:50.346Z,1019.96
2022-10-31T11:20:50.305Z,1019.92
2022-10-31T11:21:53.689Z,1019.96
2022-10-31T11:22:50.255Z,1019.93
2022-10-31T11:23:50.548Z,1019.89
2022-10-31T11:24:50.263Z,1019.85
2022-10-31T11:25:50.232Z,1019.91
2022-10-31T11:26:50.208Z,1019.88
2022-10-31T11:27:50.389Z,1019.87
2022-10-31T11:28:50.198Z,1019.88
2022-10-31T11:29:50.303Z,1019.84
2022-10-31T11:30:50.202Z,1019.80
2022-10-31T11:31:50.229Z,1019.84
2022-10-31T11:32:50.420Z,1019.81
2022-10-31T11:33:50.117Z,1019.82
2022-10-31T11:34:50.128Z,1019.77
2022-10-31T11:35:53.392Z,1019.77
2022-10-31T11:36:51.095Z,1019.81
2022-10-31T11:37:50.068Z,1019.78
2022-10-31T11:38:50.068Z,1019.73
2022-10-31T11:39:50.062Z,1019.79
2022-10-31T11:40:50.076Z,1019.72
2022-10-31T11:41:50.025Z,1019.75
2022-10-31T11:42:50.220Z,1019.71
2022-10-31T11:43:50.395Z,1019.70
2022-10-31T11:44:49.979Z,1019.76
2022-10-31T11:45:49.967Z,1019.77
2022-10-31T11:46:49.955Z,1019.73
2022-10-31T11:47:49.939Z,1019.72
2022-10-31T11:48:49.923Z,1019.83
2022-10-31T11:49:49.935Z,1019.82
2022-10-31T11:50:49.895Z,1019.80
2022-10-31T11:51:50.903Z,1019.87
2022-10-31T11:52:49.959Z,1019.85
2022-10-31T11:53:49.863Z,1019.93
2022-10-31T11:54:49.886Z,1019.81
2022-10-31T11:55:49.908Z,1019.84
2022-10-31T11:56:49.853Z,1019.78
2022-10-31T11:57:50.144Z,1019.76
2022-10-31T11:58:49.794Z,1019.72
2022-10-31T11:59:49.797Z,1019.68
2022-10-31T12:00:49.808Z,1019.74
2022-10-31T12:01:49.892Z,1019.65
2022-10-31T12:02:49.835Z,1019.67
2022-10-31T12:03:49.720Z,1019.53
2022-10-31T12:04:49.751Z,1019.48
2022-10-31T12:05:49.707Z,1019.50
2022-10-31T12:06:49.691Z,1019.46